createdAt,value
2023-01-01T00:00:21.430Z,21.37
2023-01-01T00:04:24.464Z,20.57
2023-01-01T00:08:27.537Z,23.10
2023-01-01T00:12:32.300Z,15.40
2023-01-01T00:16:35.268Z,16.17
2023-01-01T00:20:38.617Z,9.17
2023-01-01T00:24:41.670Z,20.97
2023-01-01T00:28:47.770Z,14.20
2023-01-01T00:32:55.120Z,13.93
2023-01-01T00:36:59.234Z,12.77
2023-01-01T00:41:02.216Z,28.67
2023-01-01T00:45:08.658Z,20.03
2023-01-01T00:49:11.603Z,24.23
2023-01-01T00:53:14.757Z,28.47
2023-01-01T00:57:17.871Z,9.80
2023-01-01T01:01:22.312Z,16.90
2023-01-01T01:05:25.555Z,10.73
2023-01-01T01:09:28.698Z,7.77
2023-01-01T01:13:31.708Z,13.37
2023-01-01T01:17:36.665Z,11.30
2023-01-01T01:21:41.894Z,11.20
2023-01-01T01:25:44.999Z,8.13
2023-01-01T01:29:48.629Z,8.57
2023-01-01T01:33:53.038Z,8.50
2023-01-01T01:37:55.832Z,10.93
2023-01-01T01:41:59.067Z,8.90
2023-01-01T01:46:06.124Z,9.63
2023-01-01T01:50:17.929Z,8.97
2023-01-01T01:54:25.374Z,8.97
2023-01-01T01:58:31.952Z,6.80
2023-01-01T02:02:39.503Z,8.07
2023-01-01T02:06:45.595Z,9.03
2023-01-01T02:10:48.808Z,9.23
2023-01-01T02:14:51.804Z,7.97
2023-01-01T02:19:00.987Z,6.73
2023-01-01T02:23:54.600Z,6.00
2023-01-01T02:28:12.199Z,6.63
2023-01-01T02:32:20.876Z,5.60
2023-01-01T02:36:36.263Z,6.67
2023-01-01T02:41:10.662Z,5.60
2023-01-01T02:45:45.300Z,5.23
2023-01-01T02:50:24.869Z,8.67
2023-01-01T02:55:25.034Z,7.77
2023-01-01T03:47:27.375Z,7.57
2023-01-01T03:51:58.011Z,3.80
2023-01-01T03:56:11.064Z,5.23
2023-01-01T04:00:24.378Z,6.17
2023-01-01T04:04:45.086Z,6.80
2023-01-01T04:09:00.590Z,4.13
2023-01-01T04:13:06.372Z,8.60
2023-01-01T04:17:11.706Z,6.03
2023-01-01T04:21:16.547Z,4.87
2023-01-01T04:25:20.059Z,4.67
2023-01-01T04:29:23.348Z,5.20
2023-01-01T04:33:26.343Z,4.83
2023-01-01T04:37:30.836Z,4.70
2023-01-01T04:41:34.249Z,8.03
2023-01-01T04:45:37.184Z,5.23
2023-01-01T04:49:40.267Z,4.03
2023-01-01T04:53:45.431Z,3.73
2023-01-01T04:57:48.196Z,7.10
2023-01-01T05:01:51.215Z,6.90
2023-01-01T05:06:01.480Z,5.13
2023-01-01T05:10:07.542Z,7.03
2023-01-01T05:14:10.543Z,4.97
2023-01-01T05:18:13.464Z,5.53
2023-01-01T05:22:16.454Z,4.63
2023-01-01T05:26:23.327Z,5.30
2023-01-01T05:30:26.456Z,5.43
2023-01-01T05:38:34.038Z,4.57
2023-01-01T05:42:38.367Z,3.43
2023-01-01T05:46:41.212Z,3.50
2023-01-01T05:50:44.206Z,4.03
2023-01-01T05:54:47.204Z,4.33
2023-01-01T05:58:51.607Z,4.33
2023-01-01T06:02:54.952Z,6.00
2023-01-01T06:06:57.993Z,3.13
2023-01-01T06:11:02.069Z,4.60
2023-01-01T06:15:07.621Z,7.67
2023-01-01T06:19:11.417Z,7.10
2023-01-01T06:23:14.292Z,3.23
2023-01-01T06:27:17.289Z,4.70
2023-01-01T06:31:23.253Z,3.87
2023-01-01T06:35:26.107Z,5.70
2023-01-01T06:39:29.037Z,5.63
2023-01-01T06:43:33.207Z,6.70
2023-01-01T06:47:37.920Z,3.70
2023-01-01T06:51:44.418Z,5.77
2023-01-01T06:55:54.943Z,5.57
2023-01-01T06:59:59.873Z,4.57
2023-01-01T07:04:06.490Z,6.20
2023-01-01T07:08:09.513Z,7.37
2023-01-01T07:12:12.432Z,4.90
2023-01-01T07:16:16.716Z,3.97
2023-01-01T07:20:21.000Z,5.17
2023-01-01T07:24:24.517Z,5.00
2023-01-01T07:28:28.833Z,3.20
2023-01-01T07:32:31.960Z,7.37
2023-01-01T07:36:36.333Z,5.53
2023-01-01T07:40:39.255Z,6.63
2023-01-01T07:44:42.536Z,4.87
2023-01-01T07:48:45.810Z,4.13
2023-01-01T07:52:50.169Z,3.93
2023-01-01T07:56:53.020Z,5.67
2023-01-01T08:00:56.107Z,4.57
2023-01-01T08:04:59.053Z,4.47
2023-01-01T08:09:04.871Z,5.57
2023-01-01T08:13:09.657Z,4.53
2023-01-01T08:17:13.339Z,3.67
2023-01-01T08:21:16.872Z,4.63
2023-01-01T08:25:21.810Z,3.70
2023-01-01T08:29:24.802Z,3.80
2023-01-01T08:33:28.325Z,1.70
2023-01-01T08:37:31.424Z,2.10
2023-01-01T08:41:35.720Z,2.10
2023-01-01T08:45:38.853Z,3.30
2023-01-01T08:49:42.724Z,4.40
2023-01-01T08:53:50.954Z,3.03
2023-01-01T08:57:55.834Z,2.83
2023-01-01T09:01:59.855Z,2.93
2023-01-01T09:06:03.443Z,3.50
2023-01-01T09:10:07.600Z,4.83
2023-01-01T09:14:12.414Z,4.50
2023-01-01T09:18:15.851Z,2.70
2023-01-01T09:22:19.870Z,3.40
2023-01-01T09:26:23.831Z,5.43
2023-01-01T09:30:28.438Z,2.63
2023-01-01T09:34:31.448Z,7.67
2023-01-01T09:38:34.350Z,3.70
2023-01-01T09:42:44.042Z,3.77
2023-01-01T09:46:48.815Z,5.10
2023-01-01T09:50:52.466Z,4.30
2023-01-01T09:55:00.045Z,5.83
2023-01-01T09:59:02.937Z,5.97
2023-01-01T10:03:26.438Z,6.13
2023-01-01T10:07:36.873Z,3.77
2023-01-01T10:11:51.051Z,3.60
2023-01-01T10:15:59.524Z,4.20
2023-01-01T10:20:08.847Z,5.77
2023-01-01T10:24:31.854Z,5.30
2023-01-01T10:28:43.062Z,4.53
2023-01-01T10:32:48.997Z,2.97
2023-01-01T10:36:55.926Z,4.30
2023-01-01T10:41:04.560Z,6.63
2023-01-01T10:45:14.059Z,7.70
2023-01-01T10:49:17.166Z,6.93
2023-01-01T10:53:25.814Z,6.77
2023-01-01T10:57:35.106Z,5.00
2023-01-01T11:01:38.462Z,6.87
2023-01-01T11:06:02.659Z,4.13
2023-01-01T11:10:08.771Z,5.80
2023-01-01T11:14:21.037Z,5.47
2023-01-01T11:18:46.943Z,5.63
2023-01-01T11:23:26.075Z,3.73
2023-01-01T11:28:19.739Z,6.63
2023-01-01T11:32:55.284Z,5.37
2023-01-01T11:37:38.723Z,6.37
2023-01-01T11:42:08.330Z,4.10
2023-01-01T11:46:46.920Z,8.27
2023-01-01T12:12:39.511Z,6.97
2023-01-01T12:17:18.995Z,5.57
2023-01-01T12:21:57.799Z,6.37
2023-01-01T12:26:41.785Z,7.03
2023-01-01T12:31:23.183Z,7.13
2023-01-01T12:36:15.158Z,4.20
2023-01-01T12:40:39.727Z,6.80
2023-01-01T12:45:30.430Z,4.87
2023-01-01T12:50:11.138Z,5.00
2023-01-01T12:54:37.738Z,4.63
2023-01-01T12:58:45.341Z,7.37
2023-01-01T13:03:22.352Z,6.13
2023-01-01T13:08:01.351Z,8.23
2023-01-01T13:12:21.635Z,8.07
2023-01-01T13:21:04.773Z,6.80
2023-01-01T13:25:25.530Z,5.77
2023-01-01T13:29:48.268Z,7.57
2023-01-01T13:34:27.290Z,6.53
2023-01-01T13:38:46.982Z,7.00
2023-01-01T13:43:07.532Z,12.07
2023-01-01T13:47:31.324Z,14.67
2023-01-01T13:52:05.715Z,9.40
2023-01-01T13:56:28.056Z,8.30
2023-01-01T14:00:36.963Z,9.33
2023-01-01T14:04:45.489Z,6.57
2023-01-01T14:09:03.139Z,5.60
2023-01-01T14:13:18.316Z,8.60
2023-01-01T14:17:21.849Z,8.07
2023-01-01T14:21:28.297Z,8.20
2023-01-01T14:25:31.288Z,8.17
2023-01-01T14:29:36.683Z,8.30
2023-01-01T14:33:40.332Z,5.93
2023-01-01T14:37:43.977Z,5.90
2023-01-01T14:41:46.902Z,7.43
2023-01-01T14:45:54.815Z,6.47
2023-01-01T14:50:05.628Z,5.40
2023-01-01T14:54:13.028Z,8.50
2023-01-01T14:58:20.861Z,7.40
2023-01-01T15:02:28.330Z,8.60
2023-01-01T15:06:32.806Z,8.10
2023-01-01T15:10:38.383Z,8.37
2023-01-01T15:14:45.570Z,6.30
2023-01-01T15:18:52.989Z,7.47
2023-01-01T15:22:57.168Z,7.07
2023-01-01T15:27:02.169Z,10.27
2023-01-01T15:31:05.456Z,6.13
2023-01-01T15:35:27.698Z,6.77
2023-01-01T15:39:34.647Z,10.03
2023-01-01T15:43:46.480Z,7.53
2023-01-01T15:47:51.259Z,11.83
2023-01-01T15:51:59.460Z,8.13
2023-01-01T15:56:06.740Z,8.53
2023-01-01T16:00:20.183Z,8.57
2023-01-01T16:04:29.149Z,7.40
2023-01-01T16:08:35.036Z,7.67
2023-01-01T16:12:38.145Z,9.17
2023-01-01T16:16:46.343Z,8.00
2023-01-01T16:20:49.767Z,10.67
2023-01-01T16:24:59.678Z,9.87
2023-01-01T16:29:04.520Z,10.20
2023-01-01T16:33:16.788Z,8.80
2023-01-01T16:37:25.596Z,8.20
2023-01-01T16:41:42.943Z,8.57
2023-01-01T16:45:48.513Z,8.43
2023-01-01T16:49:51.499Z,6.73
2023-01-01T16:53:54.518Z,8.83
2023-01-01T16:58:38.170Z,4.87
2023-01-01T17:02:22.751Z,8.13
2023-01-01T17:06:25.948Z,9.53
2023-01-01T17:10:30.159Z,7.10
2023-01-01T17:14:35.157Z,8.00
2023-01-01T17:23:16.670Z,9.50
2023-01-01T17:27:36.512Z,11.20
2023-01-01T17:31:57.751Z,14.07
2023-01-01T17:36:19.576Z,5.87
2023-01-01T17:40:47.934Z,13.17
2023-01-01T17:44:55.212Z,9.33
2023-01-01T17:49:06.297Z,10.63
2023-01-01T17:53:14.181Z,12.93
2023-01-01T17:57:22.233Z,14.20
2023-01-01T18:01:32.167Z,13.17
2023-01-01T18:05:37.625Z,10.07
2023-01-01T18:09:41.697Z,7.93
2023-01-01T18:13:44.984Z,7.27
2023-01-01T18:17:50.475Z,7.37
2023-01-01T18:22:02.848Z,6.33
2023-01-01T18:26:07.966Z,5.73
2023-01-01T18:30:11.804Z,8.80
2023-01-01T18:34:15.630Z,5.30
2023-01-01T18:38:20.253Z,9.97
2023-01-01T18:42:39.791Z,7.57
2023-01-01T18:46:42.845Z,7.67
2023-01-01T18:50:45.688Z,9.60
2023-01-01T18:54:53.190Z,9.23
2023-01-01T18:58:57.917Z,7.93
2023-01-01T19:03:02.985Z,7.43
2023-01-01T19:07:11.163Z,5.73
2023-01-01T19:11:31.273Z,6.27
2023-01-01T19:15:49.829Z,5.73
2023-01-01T19:20:10.638Z,7.13
2023-01-01T19:24:29.055Z,8.60
2023-01-01T19:28:35.832Z,8.07
2023-01-01T19:32:39.322Z,8.47
2023-01-01T19:36:42.979Z,5.53
2023-01-01T19:40:57.516Z,5.40
2023-01-01T19:45:02.665Z,9.03
2023-01-01T19:49:06.067Z,7.00
2023-01-01T19:53:09.313Z,13.43
2023-01-01T19:57:14.005Z,7.00
2023-01-01T20:01:20.043Z,8.43
2023-01-01T20:05:33.340Z,10.57
2023-01-01T20:09:38.412Z,11.30
2023-01-01T20:13:42.406Z,9.37
2023-01-01T20:17:47.467Z,17.07
2023-01-01T20:22:14.896Z,15.47
2023-01-01T20:26:28.604Z,10.10
2023-01-01T20:30:50.707Z,11.67
2023-01-01T20:35:13.220Z,11.07
2023-01-01T20:39:39.380Z,12.10
2023-01-01T20:44:14.350Z,10.37
2023-01-01T20:54:11.415Z,11.17
2023-01-01T20:58:48.411Z,13.07
2023-01-01T21:03:48.370Z,12.93
2023-01-01T21:08:40.473Z,13.27
2023-01-01T21:13:17.116Z,12.33
2023-01-01T21:17:38.567Z,14.70
2023-01-01T21:22:00.665Z,13.30
2023-01-01T21:26:27.920Z,28.83
2023-01-01T21:30:51.084Z,15.70
2023-01-01T21:34:58.236Z,18.40
2023-01-01T21:39:09.390Z,14.57
2023-01-01T21:43:28.603Z,13.00
2023-01-01T21:47:32.224Z,20.87
2023-01-01T21:51:46.015Z,14.07
2023-01-01T21:55:55.330Z,14.03
2023-01-01T21:59:58.475Z,15.37
2023-01-01T22:04:03.984Z,13.37
2023-01-01T22:08:26.261Z,13.53
2023-01-01T22:12:32.321Z,15.50
2023-01-01T22:16:35.233Z,14.73
2023-01-01T22:20:40.798Z,13.77
2023-01-01T22:24:52.706Z,11.87
2023-01-01T22:29:01.022Z,13.80
2023-01-01T22:33:12.830Z,16.60
2023-01-01T22:37:20.025Z,12.27
2023-01-01T22:41:24.442Z,15.47
2023-01-01T22:45:28.042Z,12.57
2023-01-01T22:49:35.887Z,12.80
2023-01-01T22:53:39.107Z,12.40
2023-01-01T22:57:43.647Z,13.00
2023-01-01T23:01:46.727Z,11.20
2023-01-01T23:05:49.662Z,13.77
2023-01-01T23:09:52.780Z,10.67
2023-01-01T23:14:14.627Z,12.33
2023-01-01T23:18:17.649Z,11.77
2023-01-01T23:22:21.409Z,12.60
2023-01-01T23:26:25.792Z,11.27
2023-01-01T23:30:30.257Z,11.60
2023-01-01T23:34:34.168Z,15.13
2023-01-01T23:38:38.696Z,12.97
2023-01-01T23:42:42.291Z,15.90
2023-01-01T23:46:47.630Z,10.40
2023-01-01T23:50:51.965Z,13.77
2023-01-01T23:54:54.753Z,16.03
2023-01-01T23:58:57.866Z,11.67
